Angra dos Reis, Brazil

5:18 PM -03 on March 28, 2017 (GMT -0300)
Santa Cruz Air Base | | Change Station

Elev 10 ft 22.93 °S, 43.72 °W | Updated 1 hour ago

Rain
Rain
75 °F
Feels Like 75 °F
N
7
Wind Variable Wind from South

Today
High -- | Low -- °F
--% Chance of Precip.
Yesterday
High -- | Low -- °F
Precip. -- in
Pressure 29.98 in
Visibility 6.2 miles
Clouds Scattered Clouds 1500 ft
Mostly Cloudy 3500 ft
Dew Point 70 °F
Humidity 83%
Rainfall 0.00 in
Snow Depth Not available.
6:03 AM 6:00 PM
New Moon, 1% visible
METAR SBSC 281900Z 17006KT 9999 4000W SCT015 BKN035 24/21 Q1015
Pressure 29.98 in
Visibility 6.2 miles
Clouds Scattered Clouds 1500 ft
Mostly Cloudy 3500 ft
Dew Point 70 °F
Humidity 83%
Rainfall 0.00 in
Snow Depth Not available.
6:03 AM 6:00 PM
New Moon, 1% visible
METAR SBSC 281900Z 17006KT 9999 4000W SCT015 BKN035 24/21 Q1015

Get Severe Weather Alerts

Thanks for signing up!

Be on the lookout for a verification email in your inbox.

You'll start receiving the daily forecast at 8 AM.

×

10-Day Weather Forecast

No radar image for this location.
×

Almanac

Astronomy

Mar. 28, 2017 Rise Set
Actual Time
Civil Twilight
Nautical Twilight
Astronomical Twilight
Moon
Length of Visible Light
Length of Day
Tomorrow will be .
, % of the Moon is Illuminated

Today's Extremes

Country Highs Country Lows

Community

WunderPhotos

Upload Photos

1,962,540 photos uploaded!

WunderBlog® & News

Nearby

Air Quality

  Air Quality AQ Index Pollutant
Not available.

Snow Depth

Station Depth Elevation

Earthquake Activity

City Distance Mag. Time & Date
Minimum magnitude displayed is 2.5.

Earthquake Activity

City Distance Mag. Time & Date
Minimum magnitude displayed is 2.5.

Coastal Water Temperatures

Place Temperature

Stations

Nearby Weather Stations

Station Location Temp. Windchill Dew Point Humidity Wind Precip. Elev Updated Type